sensor_id;sensor_type;location;lat;lon;timestamp;P1;durP1;ratioP1;P2;durP2;ratioP2
59099;SDS011;44884;52.730;6.964;2022-09-09T00:03:52;2.22;;;1.55;;
59099;SDS011;44884;52.730;6.964;2022-09-09T00:06:23;2.08;;;1.75;;
59099;SDS011;44884;52.730;6.964;2022-09-09T00:11:51;2.97;;;1.75;;
59099;SDS011;44884;52.730;6.964;2022-09-09T00:16:53;2.17;;;1.97;;
59099;SDS011;44884;52.730;6.964;2022-09-09T00:19:22;3.15;;;2.30;;
59099;SDS011;44884;52.730;6.964;2022-09-09T00:25:14;2.13;;;1.90;;
59099;SDS011;44884;52.730;6.964;2022-09-09T00:27:22;2.10;;;1.90;;
59099;SDS011;44884;52.730;6.964;2022-09-09T00:29:53;1.67;;;1.58;;
59099;SDS011;44884;52.730;6.964;2022-09-09T00:32:20;1.95;;;1.83;;
59099;SDS011;44884;52.730;6.964;2022-09-09T00:37:16;1.90;;;1.77;;
59099;SDS011;44884;52.730;6.964;2022-09-09T00:39:43;1.92;;;1.70;;
59099;SDS011;44884;52.730;6.964;2022-09-09T00:42:16;1.85;;;1.67;;
59099;SDS011;44884;52.730;6.964;2022-09-09T00:50:08;3.17;;;2.05;;
59099;SDS011;44884;52.730;6.964;2022-09-09T00:55:05;1.98;;;1.88;;
59099;SDS011;44884;52.730;6.964;2022-09-09T00:57:32;2.67;;;2.47;;
59099;SDS011;44884;52.730;6.964;2022-09-09T01:03:19;1.80;;;1.70;;
59099;SDS011;44884;52.730;6.964;2022-09-09T01:08:28;2.30;;;2.10;;
59099;SDS011;44884;52.730;6.964;2022-09-09T01:10:59;1.90;;;1.80;;
59099;SDS011;44884;52.730;6.964;2022-09-09T01:13:34;1.85;;;1.75;;
59099;SDS011;44884;52.730;6.964;2022-09-09T01:16:04;1.90;;;1.67;;
59099;SDS011;44884;52.730;6.964;2022-09-09T01:18:35;1.95;;;1.75;;
59099;SDS011;44884;52.730;6.964;2022-09-09T01:26:16;2.07;;;1.83;;
59099;SDS011;44884;52.730;6.964;2022-09-09T01:28:47;1.90;;;1.80;;
59099;SDS011;44884;52.730;6.964;2022-09-09T01:31:17;2.85;;;2.25;;
59099;SDS011;44884;52.730;6.964;2022-09-09T01:33:43;2.75;;;1.85;;
59099;SDS011;44884;52.730;6.964;2022-09-09T01:36:11;1.80;;;1.60;;
59099;SDS011;44884;52.730;6.964;2022-09-09T01:38:38;1.50;;;1.40;;
59099;SDS011;44884;52.730;6.964;2022-09-09T01:41:05;1.98;;;1.73;;
59099;SDS011;44884;52.730;6.964;2022-09-09T01:43:31;2.00;;;1.90;;
59099;SDS011;44884;52.730;6.964;2022-09-09T01:45:58;1.65;;;1.55;;
59099;SDS011;44884;52.730;6.964;2022-09-09T01:48:25;2.33;;;1.98;;
59099;SDS011;44884;52.730;6.964;2022-09-09T01:50:51;1.73;;;1.63;;
59099;SDS011;44884;52.730;6.964;2022-09-09T01:53:17;1.73;;;1.63;;
59099;SDS011;44884;52.730;6.964;2022-09-09T01:55:48;1.58;;;1.48;;
59099;SDS011;44884;52.730;6.964;2022-09-09T01:58:28;2.17;;;1.48;;
59099;SDS011;44884;52.730;6.964;2022-09-09T02:01:02;1.70;;;1.60;;
59099;SDS011;44884;52.730;6.964;2022-09-09T02:03:31;1.85;;;1.75;;
59099;SDS011;44884;52.730;6.964;2022-09-09T02:08:40;1.58;;;1.48;;
59099;SDS011;44884;52.730;6.964;2022-09-09T02:11:12;1.70;;;1.57;;
59099;SDS011;44884;52.730;6.964;2022-09-09T02:13:39;2.03;;;1.60;;
59099;SDS011;44884;52.730;6.964;2022-09-09T02:16:19;1.67;;;1.30;;
59099;SDS011;44884;52.730;6.964;2022-09-09T02:21:13;1.45;;;1.35;;
59099;SDS011;44884;52.730;6.964;2022-09-09T02:23:40;1.90;;;1.73;;
59099;SDS011;44884;52.730;6.964;2022-09-09T02:26:09;1.92;;;1.58;;
59099;SDS011;44884;52.730;6.964;2022-09-09T02:28:36;1.85;;;1.60;;
59099;SDS011;44884;52.730;6.964;2022-09-09T02:31:04;2.35;;;1.95;;
59099;SDS011;44884;52.730;6.964;2022-09-09T02:33:33;1.67;;;1.40;;
59099;SDS011;44884;52.730;6.964;2022-09-09T02:36:01;1.48;;;1.38;;
59099;SDS011;44884;52.730;6.964;2022-09-09T02:38:29;1.75;;;1.63;;
59099;SDS011;44884;52.730;6.964;2022-09-09T02:40:56;1.48;;;1.38;;
59099;SDS011;44884;52.730;6.964;2022-09-09T02:43:23;2.33;;;1.70;;
59099;SDS011;44884;52.730;6.964;2022-09-09T02:48:52;1.70;;;1.60;;
59099;SDS011;44884;52.730;6.964;2022-09-09T02:51:25;2.13;;;1.92;;
59099;SDS011;44884;52.730;6.964;2022-09-09T02:54:16;1.52;;;1.42;;
59099;SDS011;44884;52.730;6.964;2022-09-09T02:56:40;1.50;;;1.40;;
59099;SDS011;44884;52.730;6.964;2022-09-09T02:59:07;1.50;;;1.40;;
59099;SDS011;44884;52.730;6.964;2022-09-09T03:01:33;1.50;;;1.40;;
59099;SDS011;44884;52.730;6.964;2022-09-09T03:04:00;1.63;;;1.52;;
59099;SDS011;44884;52.730;6.964;2022-09-09T03:06:26;1.73;;;1.63;;
59099;SDS011;44884;52.730;6.964;2022-09-09T03:08:53;2.33;;;1.85;;
59099;SDS011;44884;52.730;6.964;2022-09-09T03:11:19;2.20;;;1.55;;
59099;SDS011;44884;52.730;6.964;2022-09-09T03:13:45;2.13;;;1.60;;
59099;SDS011;44884;52.730;6.964;2022-09-09T03:16:12;1.55;;;1.45;;
59099;SDS011;44884;52.730;6.964;2022-09-09T03:18:38;1.77;;;1.60;;
59099;SDS011;44884;52.730;6.964;2022-09-09T03:21:04;2.55;;;1.52;;
59099;SDS011;44884;52.730;6.964;2022-09-09T03:23:30;1.65;;;1.55;;
59099;SDS011;44884;52.730;6.964;2022-09-09T03:25:56;1.63;;;1.52;;
59099;SDS011;44884;52.730;6.964;2022-09-09T03:28:23;1.48;;;1.33;;
59099;SDS011;44884;52.730;6.964;2022-09-09T03:30:58;2.83;;;1.52;;
59099;SDS011;44884;52.730;6.964;2022-09-09T03:33:24;1.95;;;1.50;;
59099;SDS011;44884;52.730;6.964;2022-09-09T03:35:50;1.30;;;1.20;;
59099;SDS011;44884;52.730;6.964;2022-09-09T03:38:16;1.63;;;1.52;;
59099;SDS011;44884;52.730;6.964;2022-09-09T03:40:52;1.45;;;1.35;;
59099;SDS011;44884;52.730;6.964;2022-09-09T03:43:23;1.42;;;1.33;;
59099;SDS011;44884;52.730;6.964;2022-09-09T03:45:49;2.83;;;2.05;;
59099;SDS011;44884;52.730;6.964;2022-09-09T03:48:16;3.67;;;1.60;;
59099;SDS011;44884;52.730;6.964;2022-09-09T03:50:46;1.98;;;1.52;;
59099;SDS011;44884;52.730;6.964;2022-09-09T03:53:12;1.85;;;1.75;;
59099;SDS011;44884;52.730;6.964;2022-09-09T03:55:39;2.03;;;1.50;;
59099;SDS011;44884;52.730;6.964;2022-09-09T03:58:06;1.70;;;1.60;;
59099;SDS011;44884;52.730;6.964;2022-09-09T04:00:32;2.10;;;1.60;;
59099;SDS011;44884;52.730;6.964;2022-09-09T04:02:58;1.48;;;1.27;;
59099;SDS011;44884;52.730;6.964;2022-09-09T04:05:25;2.33;;;1.48;;
59099;SDS011;44884;52.730;6.964;2022-09-09T04:07:51;1.73;;;1.63;;
59099;SDS011;44884;52.730;6.964;2022-09-09T04:10:17;1.88;;;1.50;;
59099;SDS011;44884;52.730;6.964;2022-09-09T04:12:43;1.38;;;1.20;;
59099;SDS011;44884;52.730;6.964;2022-09-09T04:15:09;1.70;;;1.60;;
59099;SDS011;44884;52.730;6.964;2022-09-09T04:17:35;2.38;;;1.52;;
59099;SDS011;44884;52.730;6.964;2022-09-09T04:20:02;2.38;;;1.85;;
59099;SDS011;44884;52.730;6.964;2022-09-09T04:22:28;1.65;;;1.55;;
59099;SDS011;44884;52.730;6.964;2022-09-09T04:24:54;3.70;;;1.50;;
59099;SDS011;44884;52.730;6.964;2022-09-09T04:27:20;1.40;;;1.30;;
59099;SDS011;44884;52.730;6.964;2022-09-09T04:29:46;1.50;;;1.40;;
59099;SDS011;44884;52.730;6.964;2022-09-09T04:32:12;1.55;;;1.45;;
59099;SDS011;44884;52.730;6.964;2022-09-09T04:34:38;4.35;;;1.33;;
59099;SDS011;44884;52.730;6.964;2022-09-09T04:37:06;1.17;;;1.10;;
59099;SDS011;44884;52.730;6.964;2022-09-09T04:39:32;1.80;;;1.45;;
59099;SDS011;44884;52.730;6.964;2022-09-09T04:41:58;1.80;;;1.70;;
59099;SDS011;44884;52.730;6.964;2022-09-09T04:44:24;1.60;;;1.50;;
59099;SDS011;44884;52.730;6.964;2022-09-09T04:46:50;1.17;;;1.10;;
59099;SDS011;44884;52.730;6.964;2022-09-09T04:49:16;1.35;;;1.10;;
59099;SDS011;44884;52.730;6.964;2022-09-09T04:51:42;2.03;;;1.40;;
59099;SDS011;44884;52.730;6.964;2022-09-09T04:54:08;1.88;;;1.10;;
59099;SDS011;44884;52.730;6.964;2022-09-09T04:56:35;1.48;;;1.38;;
59099;SDS011;44884;52.730;6.964;2022-09-09T04:59:01;1.67;;;1.58;;
59099;SDS011;44884;52.730;6.964;2022-09-09T05:01:28;1.45;;;1.20;;
59099;SDS011;44884;52.730;6.964;2022-09-09T05:03:54;1.60;;;1.50;;
59099;SDS011;44884;52.730;6.964;2022-09-09T05:06:20;1.38;;;1.27;;
59099;SDS011;44884;52.730;6.964;2022-09-09T05:08:47;2.78;;;1.75;;
59099;SDS011;44884;52.730;6.964;2022-09-09T05:13:41;1.45;;;1.35;;
59099;SDS011;44884;52.730;6.964;2022-09-09T05:16:07;2.95;;;1.60;;
59099;SDS011;44884;52.730;6.964;2022-09-09T05:18:36;1.67;;;1.15;;
59099;SDS011;44884;52.730;6.964;2022-09-09T05:21:02;1.35;;;1.17;;
59099;SDS011;44884;52.730;6.964;2022-09-09T05:23:28;1.85;;;1.48;;
59099;SDS011;44884;52.730;6.964;2022-09-09T05:25:57;1.10;;;1.05;;
59099;SDS011;44884;52.730;6.964;2022-09-09T05:28:24;1.30;;;1.20;;
59099;SDS011;44884;52.730;6.964;2022-09-09T05:30:56;1.10;;;1.00;;
59099;SDS011;44884;52.730;6.964;2022-09-09T05:33:23;1.00;;;1.00;;
59099;SDS011;44884;52.730;6.964;2022-09-09T05:35:57;1.20;;;1.10;;
59099;SDS011;44884;52.730;6.964;2022-09-09T05:38:23;1.48;;;1.08;;
59099;SDS011;44884;52.730;6.964;2022-09-09T05:40:50;1.48;;;1.38;;
59099;SDS011;44884;52.730;6.964;2022-09-09T05:43:17;1.42;;;1.33;;
59099;SDS011;44884;52.730;6.964;2022-09-09T05:45:45;1.40;;;1.20;;
59099;SDS011;44884;52.730;6.964;2022-09-09T05:48:12;1.30;;;1.20;;
59099;SDS011;44884;52.730;6.964;2022-09-09T05:50:38;1.45;;;1.35;;
59099;SDS011;44884;52.730;6.964;2022-09-09T05:53:04;1.40;;;1.30;;
59099;SDS011;44884;52.730;6.964;2022-09-09T05:55:30;1.15;;;1.00;;
59099;SDS011;44884;52.730;6.964;2022-09-09T05:57:56;1.80;;;1.10;;
59099;SDS011;44884;52.730;6.964;2022-09-09T06:00:22;1.25;;;1.10;;
59099;SDS011;44884;52.730;6.964;2022-09-09T06:02:51;1.35;;;1.20;;
59099;SDS011;44884;52.730;6.964;2022-09-09T06:05:18;2.90;;;1.40;;
59099;SDS011;44884;52.730;6.964;2022-09-09T06:07:44;1.30;;;1.20;;
59099;SDS011;44884;52.730;6.964;2022-09-09T06:10:10;1.08;;;1.08;;
59099;SDS011;44884;52.730;6.964;2022-09-09T06:12:38;1.10;;;1.00;;
59099;SDS011;44884;52.730;6.964;2022-09-09T06:15:05;1.38;;;1.27;;
59099;SDS011;44884;52.730;6.964;2022-09-09T06:17:32;0.88;;;0.88;;
59099;SDS011;44884;52.730;6.964;2022-09-09T06:19:58;1.95;;;1.17;;
59099;SDS011;44884;52.730;6.964;2022-09-09T06:22:24;1.20;;;0.95;;
59099;SDS011;44884;52.730;6.964;2022-09-09T06:24:50;1.40;;;1.30;;
59099;SDS011;44884;52.730;6.964;2022-09-09T06:27:16;1.10;;;1.00;;
59099;SDS011;44884;52.730;6.964;2022-09-09T06:29:42;3.90;;;1.20;;
59099;SDS011;44884;52.730;6.964;2022-09-09T06:32:08;1.70;;;1.55;;
59099;SDS011;44884;52.730;6.964;2022-09-09T06:34:34;1.45;;;1.35;;
59099;SDS011;44884;52.730;6.964;2022-09-09T06:37:01;1.48;;;1.05;;
59099;SDS011;44884;52.730;6.964;2022-09-09T06:39:27;1.33;;;1.23;;
59099;SDS011;44884;52.730;6.964;2022-09-09T06:41:53;1.42;;;1.33;;
59099;SDS011;44884;52.730;6.964;2022-09-09T06:44:19;6.15;;;1.08;;
59099;SDS011;44884;52.730;6.964;2022-09-09T06:46:45;1.20;;;1.02;;
59099;SDS011;44884;52.730;6.964;2022-09-09T06:49:13;0.90;;;0.90;;
59099;SDS011;44884;52.730;6.964;2022-09-09T06:51:39;4.20;;;1.17;;
59099;SDS011;44884;52.730;6.964;2022-09-09T06:54:08;1.27;;;1.17;;
59099;SDS011;44884;52.730;6.964;2022-09-09T06:56:35;1.20;;;1.10;;
59099;SDS011;44884;52.730;6.964;2022-09-09T06:59:03;2.40;;;1.40;;
59099;SDS011;44884;52.730;6.964;2022-09-09T07:01:31;1.13;;;1.08;;
59099;SDS011;44884;52.730;6.964;2022-09-09T07:03:57;1.20;;;1.05;;
59099;SDS011;44884;52.730;6.964;2022-09-09T07:06:30;3.95;;;2.97;;
59099;SDS011;44884;52.730;6.964;2022-09-09T07:08:58;5.15;;;2.92;;
59099;SDS011;44884;52.730;6.964;2022-09-09T07:11:29;8.88;;;2.97;;
59099;SDS011;44884;52.730;6.964;2022-09-09T07:13:59;5.80;;;3.30;;
59099;SDS011;44884;52.730;6.964;2022-09-09T07:16:26;6.93;;;3.30;;
59099;SDS011;44884;52.730;6.964;2022-09-09T07:18:52;5.15;;;3.67;;
59099;SDS011;44884;52.730;6.964;2022-09-09T07:21:23;4.68;;;3.55;;
59099;SDS011;44884;52.730;6.964;2022-09-09T07:23:49;4.43;;;3.10;;
59099;SDS011;44884;52.730;6.964;2022-09-09T07:26:17;4.60;;;3.05;;
59099;SDS011;44884;52.730;6.964;2022-09-09T07:28:47;8.45;;;3.85;;
59099;SDS011;44884;52.730;6.964;2022-09-09T07:31:17;5.05;;;3.38;;
59099;SDS011;44884;52.730;6.964;2022-09-09T07:33:44;5.45;;;3.65;;
59099;SDS011;44884;52.730;6.964;2022-09-09T07:38:40;6.55;;;2.70;;
59099;SDS011;44884;52.730;6.964;2022-09-09T07:41:07;4.35;;;2.80;;
59099;SDS011;44884;52.730;6.964;2022-09-09T07:43:40;4.00;;;3.33;;
59099;SDS011;44884;52.730;6.964;2022-09-09T07:46:07;4.55;;;2.47;;
59099;SDS011;44884;52.730;6.964;2022-09-09T07:48:33;4.47;;;2.97;;
59099;SDS011;44884;52.730;6.964;2022-09-09T07:51:07;8.63;;;2.85;;
59099;SDS011;44884;52.730;6.964;2022-09-09T07:53:33;4.40;;;3.08;;
59099;SDS011;44884;52.730;6.964;2022-09-09T07:56:08;4.78;;;2.70;;
59099;SDS011;44884;52.730;6.964;2022-09-09T07:58:35;5.15;;;3.10;;
59099;SDS011;44884;52.730;6.964;2022-09-09T08:01:06;4.38;;;3.03;;
59099;SDS011;44884;52.730;6.964;2022-09-09T08:03:32;5.00;;;3.60;;
59099;SDS011;44884;52.730;6.964;2022-09-09T08:06:02;8.05;;;3.50;;
59099;SDS011;44884;52.730;6.964;2022-09-09T08:08:28;6.80;;;2.85;;
59099;SDS011;44884;52.730;6.964;2022-09-09T08:11:00;7.63;;;3.38;;
59099;SDS011;44884;52.730;6.964;2022-09-09T08:13:27;2.63;;;2.30;;
59099;SDS011;44884;52.730;6.964;2022-09-09T08:15:53;5.00;;;3.47;;
59099;SDS011;44884;52.730;6.964;2022-09-09T08:18:19;4.40;;;3.30;;
59099;SDS011;44884;52.730;6.964;2022-09-09T08:20:45;3.50;;;2.78;;
59099;SDS011;44884;52.730;6.964;2022-09-09T08:23:11;5.18;;;3.63;;
59099;SDS011;44884;52.730;6.964;2022-09-09T08:25:37;8.82;;;3.67;;
59099;SDS011;44884;52.730;6.964;2022-09-09T08:28:03;8.38;;;3.53;;
59099;SDS011;44884;52.730;6.964;2022-09-09T08:30:29;6.10;;;3.33;;
59099;SDS011;44884;52.730;6.964;2022-09-09T08:32:55;9.77;;;3.75;;
59099;SDS011;44884;52.730;6.964;2022-09-09T08:35:21;7.20;;;3.13;;
59099;SDS011;44884;52.730;6.964;2022-09-09T08:37:47;3.97;;;2.58;;
59099;SDS011;44884;52.730;6.964;2022-09-09T08:40:18;8.27;;;3.72;;
59099;SDS011;44884;52.730;6.964;2022-09-09T08:42:46;4.93;;;2.92;;
59099;SDS011;44884;52.730;6.964;2022-09-09T08:50:25;5.05;;;2.90;;
59099;SDS011;44884;52.730;6.964;2022-09-09T08:55:24;7.78;;;2.75;;
59099;SDS011;44884;52.730;6.964;2022-09-09T08:57:52;4.97;;;2.95;;
59099;SDS011;44884;52.730;6.964;2022-09-09T09:00:19;5.00;;;2.80;;
59099;SDS011;44884;52.730;6.964;2022-09-09T09:05:28;4.80;;;3.27;;
59099;SDS011;44884;52.730;6.964;2022-09-09T09:10:51;7.95;;;3.30;;
59099;SDS011;44884;52.730;6.964;2022-09-09T09:15:55;6.15;;;3.03;;
59099;SDS011;44884;52.730;6.964;2022-09-09T09:18:24;6.60;;;2.65;;
59099;SDS011;44884;52.730;6.964;2022-09-09T09:20:50;7.57;;;2.70;;
59099;SDS011;44884;52.730;6.964;2022-09-09T09:23:22;4.25;;;2.50;;
59099;SDS011;44884;52.730;6.964;2022-09-09T09:25:48;3.22;;;2.58;;
59099;SDS011;44884;52.730;6.964;2022-09-09T09:28:17;10.77;;;3.15;;
59099;SDS011;44884;52.730;6.964;2022-09-09T09:30:54;9.95;;;2.35;;
59099;SDS011;44884;52.730;6.964;2022-09-09T09:35:52;5.03;;;2.22;;
59099;SDS011;44884;52.730;6.964;2022-09-09T09:38:19;5.57;;;2.70;;
59099;SDS011;44884;52.730;6.964;2022-09-09T09:40:54;5.50;;;2.10;;
59099;SDS011;44884;52.730;6.964;2022-09-09T09:43:24;5.50;;;2.22;;
59099;SDS011;44884;52.730;6.964;2022-09-09T09:45:50;3.58;;;2.08;;
59099;SDS011;44884;52.730;6.964;2022-09-09T09:48:16;5.00;;;2.35;;
59099;SDS011;44884;52.730;6.964;2022-09-09T09:53:22;3.92;;;2.40;;
59099;SDS011;44884;52.730;6.964;2022-09-09T09:56:10;8.25;;;2.70;;
59099;SDS011;44884;52.730;6.964;2022-09-09T09:58:48;2.42;;;1.70;;
59099;SDS011;44884;52.730;6.964;2022-09-09T10:03:50;7.07;;;2.00;;
59099;SDS011;44884;52.730;6.964;2022-09-09T10:06:16;5.43;;;1.77;;
59099;SDS011;44884;52.730;6.964;2022-09-09T10:08:45;3.90;;;1.63;;
59099;SDS011;44884;52.730;6.964;2022-09-09T10:16:29;2.67;;;1.38;;
59099;SDS011;44884;52.730;6.964;2022-09-09T10:19:05;4.07;;;1.65;;
59099;SDS011;44884;52.730;6.964;2022-09-09T10:21:48;4.88;;;2.13;;
59099;SDS011;44884;52.730;6.964;2022-09-09T10:26:55;6.35;;;1.65;;
59099;SDS011;44884;52.730;6.964;2022-09-09T10:29:44;4.47;;;1.83;;
59099;SDS011;44884;52.730;6.964;2022-09-09T10:32:20;4.35;;;1.80;;
59099;SDS011;44884;52.730;6.964;2022-09-09T10:34:57;5.65;;;2.60;;
59099;SDS011;44884;52.730;6.964;2022-09-09T10:42:41;9.48;;;2.80;;
59099;SDS011;44884;52.730;6.964;2022-09-09T10:45:22;6.47;;;2.38;;
59099;SDS011;44884;52.730;6.964;2022-09-09T10:50:53;4.97;;;2.13;;
59099;SDS011;44884;52.730;6.964;2022-09-09T10:53:27;12.20;;;2.75;;
59099;SDS011;44884;52.730;6.964;2022-09-09T10:55:57;6.88;;;2.30;;
59099;SDS011;44884;52.730;6.964;2022-09-09T10:58:28;7.25;;;3.13;;
59099;SDS011;44884;52.730;6.964;2022-09-09T11:00:59;6.35;;;2.58;;
59099;SDS011;44884;52.730;6.964;2022-09-09T11:03:28;5.07;;;2.45;;
59099;SDS011;44884;52.730;6.964;2022-09-09T11:05:56;4.20;;;2.08;;
59099;SDS011;44884;52.730;6.964;2022-09-09T11:08:24;3.40;;;2.13;;
59099;SDS011;44884;52.730;6.964;2022-09-09T11:11:02;5.55;;;2.40;;
59099;SDS011;44884;52.730;6.964;2022-09-09T11:16:27;6.80;;;2.63;;
59099;SDS011;44884;52.730;6.964;2022-09-09T11:19:02;4.47;;;2.20;;
59099;SDS011;44884;52.730;6.964;2022-09-09T11:21:33;4.45;;;2.55;;
59099;SDS011;44884;52.730;6.964;2022-09-09T11:24:03;6.28;;;2.35;;
59099;SDS011;44884;52.730;6.964;2022-09-09T11:26:32;5.07;;;2.10;;
59099;SDS011;44884;52.730;6.964;2022-09-09T11:36:51;5.82;;;2.65;;
59099;SDS011;44884;52.730;6.964;2022-09-09T11:41:49;4.55;;;2.30;;
59099;SDS011;44884;52.730;6.964;2022-09-09T11:44:23;7.50;;;2.47;;
59099;SDS011;44884;52.730;6.964;2022-09-09T11:46:50;8.10;;;2.30;;
59099;SDS011;44884;52.730;6.964;2022-09-09T11:49:39;2.58;;;1.60;;
59099;SDS011;44884;52.730;6.964;2022-09-09T11:52:34;4.80;;;2.10;;
59099;SDS011;44884;52.730;6.964;2022-09-09T11:55:08;3.28;;;2.10;;
59099;SDS011;44884;52.730;6.964;2022-09-09T11:57:35;6.28;;;2.47;;
59099;SDS011;44884;52.730;6.964;2022-09-09T12:00:02;4.82;;;2.13;;
59099;SDS011;44884;52.730;6.964;2022-09-09T12:02:30;2.28;;;1.83;;
59099;SDS011;44884;52.730;6.964;2022-09-09T12:05:05;4.80;;;1.70;;
59099;SDS011;44884;52.730;6.964;2022-09-09T12:07:37;3.65;;;1.83;;
59099;SDS011;44884;52.730;6.964;2022-09-09T12:12:48;4.70;;;1.90;;
59099;SDS011;44884;52.730;6.964;2022-09-09T12:15:22;6.45;;;2.03;;
59099;SDS011;44884;52.730;6.964;2022-09-09T12:17:51;5.97;;;1.33;;
59099;SDS011;44884;52.730;6.964;2022-09-09T12:22:52;4.10;;;1.40;;
59099;SDS011;44884;52.730;6.964;2022-09-09T12:30:41;2.92;;;1.42;;
59099;SDS011;44884;52.730;6.964;2022-09-09T12:33:12;4.63;;;1.73;;
59099;SDS011;44884;52.730;6.964;2022-09-09T12:35:40;3.47;;;1.98;;
59099;SDS011;44884;52.730;6.964;2022-09-09T12:38:10;4.55;;;1.88;;
59099;SDS011;44884;52.730;6.964;2022-09-09T12:40:39;3.95;;;1.48;;
59099;SDS011;44884;52.730;6.964;2022-09-09T12:43:18;6.07;;;1.58;;
59099;SDS011;44884;52.730;6.964;2022-09-09T12:45:46;6.20;;;2.08;;
59099;SDS011;44884;52.730;6.964;2022-09-09T12:48:14;2.58;;;1.70;;
59099;SDS011;44884;52.730;6.964;2022-09-09T12:50:44;8.05;;;2.03;;
59099;SDS011;44884;52.730;6.964;2022-09-09T12:53:22;4.55;;;1.70;;
59099;SDS011;44884;52.730;6.964;2022-09-09T12:55:58;5.32;;;1.75;;
59099;SDS011;44884;52.730;6.964;2022-09-09T12:58:25;7.50;;;1.95;;
59099;SDS011;44884;52.730;6.964;2022-09-09T13:00:54;5.35;;;1.63;;
59099;SDS011;44884;52.730;6.964;2022-09-09T13:03:23;7.40;;;1.73;;
59099;SDS011;44884;52.730;6.964;2022-09-09T13:05:52;1.70;;;1.52;;
59099;SDS011;44884;52.730;6.964;2022-09-09T13:08:19;2.20;;;1.30;;
59099;SDS011;44884;52.730;6.964;2022-09-09T13:11:02;5.43;;;1.55;;
59099;SDS011;44884;52.730;6.964;2022-09-09T13:13:31;2.72;;;1.27;;
59099;SDS011;44884;52.730;6.964;2022-09-09T13:16:00;2.88;;;1.70;;
59099;SDS011;44884;52.730;6.964;2022-09-09T13:18:28;3.83;;;1.60;;
59099;SDS011;44884;52.730;6.964;2022-09-09T13:20:55;4.97;;;1.63;;
59099;SDS011;44884;52.730;6.964;2022-09-09T13:23:29;2.47;;;1.33;;
59099;SDS011;44884;52.730;6.964;2022-09-09T13:25:57;3.53;;;1.60;;
59099;SDS011;44884;52.730;6.964;2022-09-09T13:28:25;4.97;;;1.67;;
59099;SDS011;44884;52.730;6.964;2022-09-09T13:31:01;3.58;;;1.98;;
59099;SDS011;44884;52.730;6.964;2022-09-09T13:33:34;2.47;;;1.30;;
59099;SDS011;44884;52.730;6.964;2022-09-09T13:36:03;5.88;;;1.92;;
59099;SDS011;44884;52.730;6.964;2022-09-09T13:38:37;2.88;;;1.80;;
59099;SDS011;44884;52.730;6.964;2022-09-09T13:41:08;1.80;;;1.30;;
59099;SDS011;44884;52.730;6.964;2022-09-09T13:43:36;2.92;;;1.10;;
59099;SDS011;44884;52.730;6.964;2022-09-09T13:46:04;3.83;;;1.50;;
59099;SDS011;44884;52.730;6.964;2022-09-09T13:48:31;6.18;;;1.65;;
59099;SDS011;44884;52.730;6.964;2022-09-09T13:51:03;2.95;;;1.88;;
59099;SDS011;44884;52.730;6.964;2022-09-09T13:53:30;3.47;;;1.20;;
59099;SDS011;44884;52.730;6.964;2022-09-09T13:55:57;4.57;;;1.40;;
59099;SDS011;44884;52.730;6.964;2022-09-09T13:58:23;7.22;;;1.73;;
59099;SDS011;44884;52.730;6.964;2022-09-09T14:00:50;3.90;;;1.52;;
59099;SDS011;44884;52.730;6.964;2022-09-09T14:03:16;3.28;;;1.13;;
59099;SDS011;44884;52.730;6.964;2022-09-09T14:05:43;4.65;;;1.50;;
59099;SDS011;44884;52.730;6.964;2022-09-09T14:08:12;6.55;;;1.45;;
59099;SDS011;44884;52.730;6.964;2022-09-09T14:10:40;5.35;;;1.52;;
59099;SDS011;44884;52.730;6.964;2022-09-09T14:13:06;10.27;;;1.50;;
59099;SDS011;44884;52.730;6.964;2022-09-09T14:15:33;4.47;;;2.03;;
59099;SDS011;44884;52.730;6.964;2022-09-09T14:17:59;10.20;;;2.08;;
59099;SDS011;44884;52.730;6.964;2022-09-09T14:20:25;9.70;;;1.90;;
59099;SDS011;44884;52.730;6.964;2022-09-09T14:22:51;10.57;;;2.03;;
59099;SDS011;44884;52.730;6.964;2022-09-09T14:25:18;12.48;;;2.50;;
59099;SDS011;44884;52.730;6.964;2022-09-09T14:27:44;7.63;;;2.17;;
59099;SDS011;44884;52.730;6.964;2022-09-09T14:30:11;9.52;;;2.20;;
59099;SDS011;44884;52.730;6.964;2022-09-09T14:32:37;10.25;;;2.13;;
59099;SDS011;44884;52.730;6.964;2022-09-09T14:35:03;8.75;;;2.08;;
59099;SDS011;44884;52.730;6.964;2022-09-09T14:37:29;10.98;;;1.98;;
59099;SDS011;44884;52.730;6.964;2022-09-09T14:39:56;10.65;;;2.50;;
59099;SDS011;44884;52.730;6.964;2022-09-09T14:42:22;11.18;;;2.47;;
59099;SDS011;44884;52.730;6.964;2022-09-09T14:44:48;11.65;;;2.17;;
59099;SDS011;44884;52.730;6.964;2022-09-09T14:47:14;13.82;;;3.42;;
59099;SDS011;44884;52.730;6.964;2022-09-09T14:49:40;8.38;;;2.42;;
59099;SDS011;44884;52.730;6.964;2022-09-09T14:52:06;8.00;;;1.95;;
59099;SDS011;44884;52.730;6.964;2022-09-09T14:54:34;18.50;;;2.95;;
59099;SDS011;44884;52.730;6.964;2022-09-09T14:57:00;7.80;;;2.33;;
59099;SDS011;44884;52.730;6.964;2022-09-09T14:59:26;11.00;;;2.40;;
59099;SDS011;44884;52.730;6.964;2022-09-09T15:01:52;15.20;;;3.78;;
59099;SDS011;44884;52.730;6.964;2022-09-09T15:04:18;14.32;;;2.60;;
59099;SDS011;44884;52.730;6.964;2022-09-09T15:06:45;12.25;;;2.30;;
59099;SDS011;44884;52.730;6.964;2022-09-09T15:09:13;17.10;;;2.50;;
59099;SDS011;44884;52.730;6.964;2022-09-09T15:11:39;18.05;;;3.13;;
59099;SDS011;44884;52.730;6.964;2022-09-09T15:14:06;10.88;;;2.00;;
59099;SDS011;44884;52.730;6.964;2022-09-09T15:16:32;9.85;;;2.22;;
59099;SDS011;44884;52.730;6.964;2022-09-09T15:18:59;8.65;;;2.33;;
59099;SDS011;44884;52.730;6.964;2022-09-09T15:21:27;15.55;;;3.72;;
59099;SDS011;44884;52.730;6.964;2022-09-09T15:23:53;8.85;;;2.65;;
59099;SDS011;44884;52.730;6.964;2022-09-09T15:26:19;8.35;;;2.25;;
59099;SDS011;44884;52.730;6.964;2022-09-09T15:28:46;7.88;;;3.08;;
59099;SDS011;44884;52.730;6.964;2022-09-09T15:31:17;9.85;;;2.33;;
59099;SDS011;44884;52.730;6.964;2022-09-09T15:33:50;9.25;;;2.05;;
59099;SDS011;44884;52.730;6.964;2022-09-09T15:36:20;12.63;;;2.00;;
59099;SDS011;44884;52.730;6.964;2022-09-09T15:38:46;6.78;;;2.00;;
59099;SDS011;44884;52.730;6.964;2022-09-09T15:41:13;6.78;;;1.92;;
59099;SDS011;44884;52.730;6.964;2022-09-09T15:43:42;7.82;;;2.05;;
59099;SDS011;44884;52.730;6.964;2022-09-09T15:46:30;8.13;;;1.90;;
59099;SDS011;44884;52.730;6.964;2022-09-09T15:48:58;9.07;;;2.15;;
59099;SDS011;44884;52.730;6.964;2022-09-09T15:51:28;8.30;;;2.05;;
59099;SDS011;44884;52.730;6.964;2022-09-09T15:53:55;9.10;;;2.05;;
59099;SDS011;44884;52.730;6.964;2022-09-09T15:56:21;14.27;;;2.70;;
59099;SDS011;44884;52.730;6.964;2022-09-09T15:58:47;7.88;;;1.92;;
59099;SDS011;44884;52.730;6.964;2022-09-09T16:01:13;5.40;;;1.52;;
59099;SDS011;44884;52.730;6.964;2022-09-09T16:03:40;4.90;;;1.45;;
59099;SDS011;44884;52.730;6.964;2022-09-09T16:06:11;7.95;;;2.30;;
59099;SDS011;44884;52.730;6.964;2022-09-09T16:08:39;7.82;;;1.70;;
59099;SDS011;44884;52.730;6.964;2022-09-09T16:11:06;6.05;;;2.13;;
59099;SDS011;44884;52.730;6.964;2022-09-09T16:13:34;7.38;;;1.55;;
59099;SDS011;44884;52.730;6.964;2022-09-09T16:16:01;5.45;;;1.50;;
59099;SDS011;44884;52.730;6.964;2022-09-09T16:18:32;8.23;;;2.25;;
59099;SDS011;44884;52.730;6.964;2022-09-09T16:20:58;10.95;;;2.20;;
59099;SDS011;44884;52.730;6.964;2022-09-09T16:23:25;6.50;;;1.92;;
59099;SDS011;44884;52.730;6.964;2022-09-09T16:25:54;11.13;;;2.35;;
59099;SDS011;44884;52.730;6.964;2022-09-09T16:28:20;5.38;;;1.92;;
59099;SDS011;44884;52.730;6.964;2022-09-09T16:30:47;7.97;;;1.98;;
59099;SDS011;44884;52.730;6.964;2022-09-09T16:33:13;8.18;;;1.85;;
59099;SDS011;44884;52.730;6.964;2022-09-09T16:35:42;5.28;;;1.80;;
59099;SDS011;44884;52.730;6.964;2022-09-09T16:38:08;9.07;;;1.83;;
59099;SDS011;44884;52.730;6.964;2022-09-09T16:40:35;5.95;;;1.92;;
59099;SDS011;44884;52.730;6.964;2022-09-09T16:43:01;7.50;;;1.45;;